sensor_id;sensor_type;location;lat;lon;timestamp;pressure;altitude;pressure_sealevel;temperature;humidity
9839;BME280;4958;48.150;11.506;2023-06-22T00:02:14;95659.97;;;24.41;62.07
9839;BME280;4958;48.150;11.506;2023-06-22T00:04:42;95659.16;;;24.31;62.21
9839;BME280;4958;48.150;11.506;2023-06-22T00:07:09;95662.53;;;24.21;63.21
9839;BME280;4958;48.150;11.506;2023-06-22T00:09:36;95657.28;;;24.21;62.96
9839;BME280;4958;48.150;11.506;2023-06-22T00:12:03;95652.53;;;24.18;62.81
9839;BME280;4958;48.150;11.506;2023-06-22T00:14:30;95663.28;;;24.11;62.85
9839;BME280;4958;48.150;11.506;2023-06-22T00:16:56;95663.34;;;24.22;62.52
9839;BME280;4958;48.150;11.506;2023-06-22T00:19:24;95658.06;;;24.22;62.56
9839;BME280;4958;48.150;11.506;2023-06-22T00:21:52;95660.16;;;24.15;62.99
9839;BME280;4958;48.150;11.506;2023-06-22T00:24:21;95656.16;;;24.07;62.98
9839;BME280;4958;48.150;11.506;2023-06-22T00:26:48;95650.66;;;24.03;63.10
9839;BME280;4958;48.150;11.506;2023-06-22T00:29:15;95655.84;;;23.88;63.93
9839;BME280;4958;48.150;11.506;2023-06-22T00:31:42;95664.28;;;23.90;63.71
9839;BME280;4958;48.150;11.506;2023-06-22T00:34:08;95668.72;;;23.80;64.35
9839;BME280;4958;48.150;11.506;2023-06-22T00:36:35;95662.16;;;23.82;64.50
9839;BME280;4958;48.150;11.506;2023-06-22T00:39:03;95661.34;;;23.76;64.33
9839;BME280;4958;48.150;11.506;2023-06-22T00:41:31;95662.38;;;23.75;64.53
9839;BME280;4958;48.150;11.506;2023-06-22T00:43:57;95661.09;;;23.78;64.33
9839;BME280;4958;48.150;11.506;2023-06-22T00:46:24;95657.69;;;23.83;64.03
9839;BME280;4958;48.150;11.506;2023-06-22T00:48:51;95661.66;;;23.85;63.97
9839;BME280;4958;48.150;11.506;2023-06-22T00:51:24;95653.47;;;23.82;64.12
9839;BME280;4958;48.150;11.506;2023-06-22T00:53:51;95650.53;;;23.73;64.30
9839;BME280;4958;48.150;11.506;2023-06-22T00:56:20;95651.06;;;23.70;64.31
9839;BME280;4958;48.150;11.506;2023-06-22T00:58:50;95661.81;;;23.63;64.25
9839;BME280;4958;48.150;11.506;2023-06-22T01:01:18;95655.16;;;23.46;64.86
9839;BME280;4958;48.150;11.506;2023-06-22T01:03:48;95639.84;;;23.37;65.01
9839;BME280;4958;48.150;11.506;2023-06-22T01:06:20;95642.25;;;23.44;65.15
9839;BME280;4958;48.150;11.506;2023-06-22T01:08:58;95636.50;;;23.47;65.05
9839;BME280;4958;48.150;11.506;2023-06-22T01:11:36;95632.78;;;23.48;65.10
9839;BME280;4958;48.150;11.506;2023-06-22T01:14:12;95628.84;;;23.40;64.99
9839;BME280;4958;48.150;11.506;2023-06-22T01:16:44;95622.81;;;23.45;64.76
9839;BME280;4958;48.150;11.506;2023-06-22T01:19:25;95620.94;;;23.40;65.07
9839;BME280;4958;48.150;11.506;2023-06-22T01:21:56;95621.75;;;23.41;65.00
9839;BME280;4958;48.150;11.506;2023-06-22T01:24:27;95616.22;;;23.42;65.15
9839;BME280;4958;48.150;11.506;2023-06-22T01:27:05;95615.72;;;23.46;65.18
9839;BME280;4958;48.150;11.506;2023-06-22T01:29:37;95619.13;;;23.51;64.68
9839;BME280;4958;48.150;11.506;2023-06-22T01:32:06;95616.75;;;23.50;65.00
9839;BME280;4958;48.150;11.506;2023-06-22T01:34:33;95614.38;;;23.48;65.01
9839;BME280;4958;48.150;11.506;2023-06-22T01:37:00;95609.34;;;23.36;65.31
9839;BME280;4958;48.150;11.506;2023-06-22T01:39:29;95605.66;;;23.27;65.60
9839;BME280;4958;48.150;11.506;2023-06-22T01:41:55;95603.50;;;23.19;66.03
9839;BME280;4958;48.150;11.506;2023-06-22T01:44:24;95600.63;;;23.21;65.95
9839;BME280;4958;48.150;11.506;2023-06-22T01:46:53;95606.59;;;23.11;66.27
9839;BME280;4958;48.150;11.506;2023-06-22T01:49:19;95606.38;;;23.18;65.99
9839;BME280;4958;48.150;11.506;2023-06-22T01:51:46;95609.31;;;23.26;65.69
9839;BME280;4958;48.150;11.506;2023-06-22T01:54:13;95608.53;;;23.26;65.80
9839;BME280;4958;48.150;11.506;2023-06-22T01:56:39;95610.66;;;23.34;65.64
9839;BME280;4958;48.150;11.506;2023-06-22T01:59:09;95601.16;;;23.23;65.82
9839;BME280;4958;48.150;11.506;2023-06-22T02:01:42;95609.06;;;23.28;65.63
9839;BME280;4958;48.150;11.506;2023-06-22T02:04:15;95611.41;;;23.29;65.42
9839;BME280;4958;48.150;11.506;2023-06-22T02:06:45;95609.53;;;23.20;66.05
9839;BME280;4958;48.150;11.506;2023-06-22T02:09:16;95609.78;;;23.18;65.98
9839;BME280;4958;48.150;11.506;2023-06-22T02:11:44;95612.22;;;23.30;66.18
9839;BME280;4958;48.150;11.506;2023-06-22T02:14:12;95617.75;;;23.33;65.38
9839;BME280;4958;48.150;11.506;2023-06-22T02:16:40;95622.50;;;23.36;65.63
9839;BME280;4958;48.150;11.506;2023-06-22T02:19:06;95625.16;;;23.41;65.70
9839;BME280;4958;48.150;11.506;2023-06-22T02:21:34;95618.91;;;23.53;65.36
9839;BME280;4958;48.150;11.506;2023-06-22T02:24:01;95623.41;;;23.57;65.12
9839;BME280;4958;48.150;11.506;2023-06-22T02:26:28;95617.63;;;23.55;65.17
9839;BME280;4958;48.150;11.506;2023-06-22T02:28:55;95615.84;;;23.66;64.74
9839;BME280;4958;48.150;11.506;2023-06-22T02:31:21;95614.44;;;23.53;65.17
9839;BME280;4958;48.150;11.506;2023-06-22T02:33:48;95627.78;;;23.41;65.81
9839;BME280;4958;48.150;11.506;2023-06-22T02:36:15;95630.88;;;23.33;66.21
9839;BME280;4958;48.150;11.506;2023-06-22T02:38:43;95632.47;;;23.34;66.06
9839;BME280;4958;48.150;11.506;2023-06-22T02:41:13;95642.44;;;23.27;66.34
9839;BME280;4958;48.150;11.506;2023-06-22T02:43:43;95644.31;;;23.37;65.88
9839;BME280;4958;48.150;11.506;2023-06-22T02:46:10;95646.34;;;23.25;66.27
9839;BME280;4958;48.150;11.506;2023-06-22T02:48:36;95650.25;;;23.17;66.22
9839;BME280;4958;48.150;11.506;2023-06-22T02:51:02;95647.22;;;22.98;67.08
9839;BME280;4958;48.150;11.506;2023-06-22T02:53:29;95643.53;;;22.94;67.12
9839;BME280;4958;48.150;11.506;2023-06-22T02:55:58;95647.97;;;22.89;67.76
9839;BME280;4958;48.150;11.506;2023-06-22T02:58:26;95634.50;;;22.80;67.92
9839;BME280;4958;48.150;11.506;2023-06-22T03:00:52;95631.09;;;22.80;68.25
9839;BME280;4958;48.150;11.506;2023-06-22T03:03:19;95628.38;;;22.69;69.16
9839;BME280;4958;48.150;11.506;2023-06-22T03:05:45;95630.22;;;22.69;68.54
9839;BME280;4958;48.150;11.506;2023-06-22T03:08:12;95626.19;;;22.61;69.17
9839;BME280;4958;48.150;11.506;2023-06-22T03:10:39;95617.81;;;22.64;69.23
9839;BME280;4958;48.150;11.506;2023-06-22T03:13:08;95627.03;;;22.67;69.18
9839;BME280;4958;48.150;11.506;2023-06-22T03:15:35;95626.25;;;22.71;68.90
9839;BME280;4958;48.150;11.506;2023-06-22T03:18:01;95618.78;;;22.85;68.52
9839;BME280;4958;48.150;11.506;2023-06-22T03:20:28;95627.72;;;22.84;68.81
9839;BME280;4958;48.150;11.506;2023-06-22T03:22:58;95621.66;;;22.84;68.43
9839;BME280;4958;48.150;11.506;2023-06-22T03:25:25;95626.69;;;22.85;68.32
9839;BME280;4958;48.150;11.506;2023-06-22T03:27:51;95610.25;;;22.73;69.12
9839;BME280;4958;48.150;11.506;2023-06-22T03:30:19;95618.38;;;22.71;69.12
9839;BME280;4958;48.150;11.506;2023-06-22T03:32:46;95616.75;;;22.60;69.84
9839;BME280;4958;48.150;11.506;2023-06-22T03:35:13;95615.19;;;22.64;69.75
9839;BME280;4958;48.150;11.506;2023-06-22T03:37:42;95621.75;;;22.62;69.88
9839;BME280;4958;48.150;11.506;2023-06-22T03:40:09;95629.44;;;22.73;69.53
9839;BME280;4958;48.150;11.506;2023-06-22T03:42:38;95627.91;;;22.78;69.08
9839;BME280;4958;48.150;11.506;2023-06-22T03:45:06;95628.13;;;22.76;69.27
9839;BME280;4958;48.150;11.506;2023-06-22T03:47:34;95634.84;;;22.94;68.58
9839;BME280;4958;48.150;11.506;2023-06-22T03:50:00;95634.44;;;23.07;68.18
9839;BME280;4958;48.150;11.506;2023-06-22T03:52:28;95637.28;;;23.00;68.39
9839;BME280;4958;48.150;11.506;2023-06-22T03:54:55;95623.59;;;22.98;68.66
9839;BME280;4958;48.150;11.506;2023-06-22T03:57:21;95633.09;;;23.04;68.53
9839;BME280;4958;48.150;11.506;2023-06-22T03:59:48;95635.25;;;23.13;68.15
9839;BME280;4958;48.150;11.506;2023-06-22T04:02:14;95632.34;;;23.09;68.47
9839;BME280;4958;48.150;11.506;2023-06-22T04:04:42;95641.78;;;23.10;68.04
9839;BME280;4958;48.150;11.506;2023-06-22T04:07:08;95646.97;;;23.00;68.91
9839;BME280;4958;48.150;11.506;2023-06-22T04:09:35;95648.41;;;23.18;67.95
9839;BME280;4958;48.150;11.506;2023-06-22T04:12:04;95650.53;;;23.21;68.43
9839;BME280;4958;48.150;11.506;2023-06-22T04:14:34;95647.63;;;23.17;68.56
9839;BME280;4958;48.150;11.506;2023-06-22T04:17:01;95641.06;;;23.20;68.12
9839;BME280;4958;48.150;11.506;2023-06-22T04:19:27;95646.06;;;23.21;68.76
9839;BME280;4958;48.150;11.506;2023-06-22T04:21:55;95638.59;;;23.45;69.39
9839;BME280;4958;48.150;11.506;2023-06-22T04:24:21;95637.94;;;23.75;67.92
9839;BME280;4958;48.150;11.506;2023-06-22T04:26:48;95639.31;;;23.93;66.62
9839;BME280;4958;48.150;11.506;2023-06-22T04:29:20;95633.28;;;24.02;65.95
9839;BME280;4958;48.150;11.506;2023-06-22T04:31:55;95640.91;;;23.99;65.74
9839;BME280;4958;48.150;11.506;2023-06-22T04:34:24;95639.84;;;23.95;65.89
9839;BME280;4958;48.150;11.506;2023-06-22T04:36:51;95639.78;;;23.74;66.03
9839;BME280;4958;48.150;11.506;2023-06-22T04:39:19;95641.63;;;23.79;66.32
9839;BME280;4958;48.150;11.506;2023-06-22T04:41:46;95636.34;;;23.64;67.17
9839;BME280;4958;48.150;11.506;2023-06-22T04:44:16;95626.84;;;23.58;66.68
9839;BME280;4958;48.150;11.506;2023-06-22T04:46:49;95618.59;;;23.49;67.94
9839;BME280;4958;48.150;11.506;2023-06-22T04:49:22;95629.47;;;23.58;67.57
9839;BME280;4958;48.150;11.506;2023-06-22T04:51:48;95624.47;;;23.61;67.58
9839;BME280;4958;48.150;11.506;2023-06-22T04:54:17;95618.69;;;23.59;67.29
9839;BME280;4958;48.150;11.506;2023-06-22T04:56:44;95615.28;;;23.64;67.60
9839;BME280;4958;48.150;11.506;2023-06-22T04:59:15;95617.56;;;23.50;67.26
9839;BME280;4958;48.150;11.506;2023-06-22T05:01:50;95626.00;;;23.52;67.04
9839;BME280;4958;48.150;11.506;2023-06-22T05:04:18;95620.19;;;23.50;67.42
9839;BME280;4958;48.150;11.506;2023-06-22T05:06:46;95617.88;;;23.54;67.51
9839;BME280;4958;48.150;11.506;2023-06-22T05:09:14;95620.78;;;23.57;67.60
9839;BME280;4958;48.150;11.506;2023-06-22T05:11:42;95619.72;;;23.58;67.39
9839;BME280;4958;48.150;11.506;2023-06-22T05:14:12;95614.75;;;23.62;67.39
9839;BME280;4958;48.150;11.506;2023-06-22T05:16:42;95614.78;;;23.72;66.94
9839;BME280;4958;48.150;11.506;2023-06-22T05:19:09;95617.97;;;23.79;66.96
9839;BME280;4958;48.150;11.506;2023-06-22T05:21:36;95612.19;;;23.82;66.65
9839;BME280;4958;48.150;11.506;2023-06-22T05:24:03;95606.69;;;23.89;66.69
9839;BME280;4958;48.150;11.506;2023-06-22T05:26:30;95600.63;;;23.88;66.67
9839;BME280;4958;48.150;11.506;2023-06-22T05:28:58;95609.59;;;23.92;66.35
9839;BME280;4958;48.150;11.506;2023-06-22T05:31:27;95615.63;;;23.93;67.17
9839;BME280;4958;48.150;11.506;2023-06-22T05:33:55;95616.97;;;24.10;65.88
9839;BME280;4958;48.150;11.506;2023-06-22T05:36:22;95604.63;;;24.16;65.63
9839;BME280;4958;48.150;11.506;2023-06-22T05:38:53;95610.69;;;24.17;66.31
9839;BME280;4958;48.150;11.506;2023-06-22T05:41:19;95614.13;;;24.17;66.35
9839;BME280;4958;48.150;11.506;2023-06-22T05:43:46;95605.19;;;24.23;66.23
9839;BME280;4958;48.150;11.506;2023-06-22T05:46:12;95599.16;;;24.33;65.96
9839;BME280;4958;48.150;11.506;2023-06-22T05:48:40;95598.38;;;24.37;66.27
9839;BME280;4958;48.150;11.506;2023-06-22T05:51:07;95596.00;;;24.31;66.23
9839;BME280;4958;48.150;11.506;2023-06-22T05:53:33;95596.53;;;24.33;66.16
9839;BME280;4958;48.150;11.506;2023-06-22T05:56:02;95597.56;;;24.47;65.72
9839;BME280;4958;48.150;11.506;2023-06-22T05:58:29;95600.22;;;24.52;64.97
9839;BME280;4958;48.150;11.506;2023-06-22T06:00:55;95593.88;;;24.48;64.98
9839;BME280;4958;48.150;11.506;2023-06-22T06:03:22;95607.59;;;24.60;64.79
9839;BME280;4958;48.150;11.506;2023-06-22T06:05:50;95622.88;;;24.58;65.14
9839;BME280;4958;48.150;11.506;2023-06-22T06:08:16;95614.41;;;24.71;64.56
9839;BME280;4958;48.150;11.506;2023-06-22T06:10:42;95605.75;;;24.76;64.84
9839;BME280;4958;48.150;11.506;2023-06-22T06:13:09;95606.25;;;24.78;64.80
9839;BME280;4958;48.150;11.506;2023-06-22T06:15:35;95605.75;;;24.81;64.37
9839;BME280;4958;48.150;11.506;2023-06-22T06:18:04;95600.97;;;24.93;64.37
9839;BME280;4958;48.150;11.506;2023-06-22T06:20:32;95606.22;;;25.03;63.42
9839;BME280;4958;48.150;11.506;2023-06-22T06:23:00;95605.19;;;25.09;63.88
9839;BME280;4958;48.150;11.506;2023-06-22T06:25:26;95600.72;;;25.00;63.93
9839;BME280;4958;48.150;11.506;2023-06-22T06:27:55;95589.38;;;25.09;63.16
9839;BME280;4958;48.150;11.506;2023-06-22T06:30:22;95577.25;;;25.08;62.90
9839;BME280;4958;48.150;11.506;2023-06-22T06:33:02;95587.56;;;25.00;64.01
9839;BME280;4958;48.150;11.506;2023-06-22T06:35:30;95595.47;;;24.95;63.54
9839;BME280;4958;48.150;11.506;2023-06-22T06:38:00;95591.50;;;24.97;63.99
9839;BME280;4958;48.150;11.506;2023-06-22T06:40:29;95581.25;;;25.01;64.06
9839;BME280;4958;48.150;11.506;2023-06-22T06:42:55;95581.72;;;25.18;63.56
9839;BME280;4958;48.150;11.506;2023-06-22T06:45:23;95588.75;;;25.38;63.23
9839;BME280;4958;48.150;11.506;2023-06-22T06:47:51;95592.41;;;25.52;63.09
9839;BME280;4958;48.150;11.506;2023-06-22T06:50:22;95585.25;;;25.58;61.76
9839;BME280;4958;48.150;11.506;2023-06-22T06:52:49;95582.38;;;25.49;61.86
9839;BME280;4958;48.150;11.506;2023-06-22T06:55:17;95578.16;;;25.53;62.31
9839;BME280;4958;48.150;11.506;2023-06-22T06:57:45;95582.84;;;25.61;61.46
9839;BME280;4958;48.150;11.506;2023-06-22T07:00:14;95581.25;;;25.60;62.10
9839;BME280;4958;48.150;11.506;2023-06-22T07:02:47;95578.09;;;25.73;61.55
9839;BME280;4958;48.150;11.506;2023-06-22T07:05:14;95583.09;;;25.75;60.94
9839;BME280;4958;48.150;11.506;2023-06-22T07:07:40;95583.88;;;25.75;61.34
9839;BME280;4958;48.150;11.506;2023-06-22T07:10:08;95583.28;;;25.89;61.12
9839;BME280;4958;48.150;11.506;2023-06-22T07:12:39;95585.56;;;26.00;60.17
9839;BME280;4958;48.150;11.506;2023-06-22T07:15:09;95584.75;;;26.05;60.30
9839;BME280;4958;48.150;11.506;2023-06-22T07:17:40;95583.97;;;26.04;60.00
9839;BME280;4958;48.150;11.506;2023-06-22T07:20:07;95589.13;;;26.20;60.07
9839;BME280;4958;48.150;11.506;2023-06-22T07:22:35;95577.75;;;26.29;59.80
9839;BME280;4958;48.150;11.506;2023-06-22T07:25:02;95572.22;;;26.31;59.67
9839;BME280;4958;48.150;11.506;2023-06-22T07:27:38;95581.63;;;26.37;59.23
9839;BME280;4958;48.150;11.506;2023-06-22T07:30:11;95569.22;;;26.37;59.44
9839;BME280;4958;48.150;11.506;2023-06-22T07:32:37;95575.03;;;26.39;58.96
9839;BME280;4958;48.150;11.506;2023-06-22T07:35:12;95567.78;;;26.55;59.80
9839;BME280;4958;48.150;11.506;2023-06-22T07:37:39;95561.94;;;26.58;58.43
9839;BME280;4958;48.150;11.506;2023-06-22T07:40:07;95562.19;;;26.57;57.93
9839;BME280;4958;48.150;11.506;2023-06-22T07:42:36;95555.31;;;26.61;58.63
9839;BME280;4958;48.150;11.506;2023-06-22T07:45:02;95553.66;;;26.70;58.52
9839;BME280;4958;48.150;11.506;2023-06-22T07:47:29;95549.94;;;26.71;57.71
9839;BME280;4958;48.150;11.506;2023-06-22T07:49:59;95549.28;;;26.84;57.23
9839;BME280;4958;48.150;11.506;2023-06-22T07:52:26;95543.94;;;26.89;58.03
9839;BME280;4958;48.150;11.506;2023-06-22T07:54:53;95549.16;;;26.99;56.78
9839;BME280;4958;48.150;11.506;2023-06-22T07:57:19;95545.63;;;27.09;56.55
9839;BME280;4958;48.150;11.506;2023-06-22T07:59:47;95553.38;;;27.24;55.47
9839;BME280;4958;48.150;11.506;2023-06-22T08:02:14;95549.88;;;27.29;55.39
9839;BME280;4958;48.150;11.506;2023-06-22T08:04:41;95553.63;;;27.46;55.32
9839;BME280;4958;48.150;11.506;2023-06-22T08:07:07;95552.44;;;27.58;55.47
9839;BME280;4958;48.150;11.506;2023-06-22T08:09:34;95548.56;;;27.50;55.28
9839;BME280;4958;48.150;11.506;2023-06-22T08:12:01;95561.44;;;27.57;54.99
9839;BME280;4958;48.150;11.506;2023-06-22T08:14:29;95552.44;;;27.58;54.69
9839;BME280;4958;48.150;11.506;2023-06-22T08:16:57;95553.53;;;27.75;54.48
9839;BME280;4958;48.150;11.506;2023-06-22T08:19:23;95548.41;;;27.84;53.70
9839;BME280;4958;48.150;11.506;2023-06-22T08:21:50;95542.31;;;28.02;53.76
9839;BME280;4958;48.150;11.506;2023-06-22T08:24:16;95537.56;;;28.18;52.79
9839;BME280;4958;48.150;11.506;2023-06-22T08:26:42;95540.56;;;28.30;52.67
9839;BME280;4958;48.150;11.506;2023-06-22T08:29:09;95532.34;;;28.32;52.26
9839;BME280;4958;48.150;11.506;2023-06-22T08:31:35;95533.06;;;28.51;51.93
9839;BME280;4958;48.150;11.506;2023-06-22T08:34:03;95538.06;;;28.39;51.37
9839;BME280;4958;48.150;11.506;2023-06-22T08:36:30;95536.47;;;28.38;51.72
9839;BME280;4958;48.150;11.506;2023-06-22T08:39:02;95537.09;;;28.48;51.66
9839;BME280;4958;48.150;11.506;2023-06-22T08:41:29;95536.63;;;28.60;51.37
9839;BME280;4958;48.150;11.506;2023-06-22T08:43:58;95537.44;;;28.61;51.65
9839;BME280;4958;48.150;11.506;2023-06-22T08:46:25;95534.59;;;28.71;51.84
9839;BME280;4958;48.150;11.506;2023-06-22T08:48:55;95543.69;;;28.83;51.16
9839;BME280;4958;48.150;11.506;2023-06-22T08:51:23;95527.66;;;28.88;50.89
9839;BME280;4958;48.150;11.506;2023-06-22T08:53:49;95532.47;;;28.86;50.57
9839;BME280;4958;48.150;11.506;2023-06-22T08:56:16;95535.75;;;28.97;50.87
9839;BME280;4958;48.150;11.506;2023-06-22T08:58:43;95531.72;;;29.00;49.80
9839;BME280;4958;48.150;11.506;2023-06-22T09:01:12;95523.84;;;29.08;49.63
9839;BME280;4958;48.150;11.506;2023-06-22T09:03:40;95526.69;;;29.26;49.76
9839;BME280;4958;48.150;11.506;2023-06-22T09:06:09;95521.59;;;29.43;48.90
9839;BME280;4958;48.150;11.506;2023-06-22T09:08:44;95516.66;;;29.50;48.87
9839;BME280;4958;48.150;11.506;2023-06-22T09:11:11;95525.16;;;29.74;48.49
9839;BME280;4958;48.150;11.506;2023-06-22T09:13:37;95517.16;;;29.88;47.13
9839;BME280;4958;48.150;11.506;2023-06-22T09:16:04;95518.59;;;30.08;47.60
9839;BME280;4958;48.150;11.506;2023-06-22T09:18:32;95517.88;;;30.16;47.80
9839;BME280;4958;48.150;11.506;2023-06-22T09:20:58;95528.63;;;30.33;47.47
9839;BME280;4958;48.150;11.506;2023-06-22T09:23:24;95515.81;;;30.35;46.66
9839;BME280;4958;48.150;11.506;2023-06-22T09:25:52;95516.03;;;30.47;47.01
9839;BME280;4958;48.150;11.506;2023-06-22T09:28:26;95517.78;;;30.52;45.90
9839;BME280;4958;48.150;11.506;2023-06-22T09:31:05;95505.34;;;30.61;44.66
9839;BME280;4958;48.150;11.506;2023-06-22T09:33:32;95512.72;;;30.64;45.76
9839;BME280;4958;48.150;11.506;2023-06-22T09:35:58;95500.13;;;30.78;45.96
9839;BME280;4958;48.150;11.506;2023-06-22T09:38:25;95503.09;;;30.85;44.98
9839;BME280;4958;48.150;11.506;2023-06-22T09:40:53;95508.47;;;30.94;44.96
9839;BME280;4958;48.150;11.506;2023-06-22T09:46:43;95505.50;;;30.96;44.87
9839;BME280;4958;48.150;11.506;2023-06-22T09:49:32;95494.03;;;31.17;44.18
9839;BME280;4958;48.150;11.506;2023-06-22T09:52:28;95504.41;;;31.36;43.81
9839;BME280;4958;48.150;11.506;2023-06-22T09:55:12;95505.03;;;31.50;43.08
9839;BME280;4958;48.150;11.506;2023-06-22T09:57:43;95502.25;;;31.55;43.04
9839;BME280;4958;48.150;11.506;2023-06-22T10:00:11;95483.28;;;31.57;42.09
9839;BME280;4958;48.150;11.506;2023-06-22T10:02:41;95485.94;;;31.57;42.71
9839;BME280;4958;48.150;11.506;2023-06-22T10:05:14;95489.22;;;31.63;41.87
9839;BME280;4958;48.150;11.506;2023-06-22T10:07:41;95488.66;;;31.66;41.97
9839;BME280;4958;48.150;11.506;2023-06-22T10:10:09;95485.34;;;31.94;41.99
9839;BME280;4958;48.150;11.506;2023-06-22T10:12:43;95475.94;;;32.32;41.66
9839;BME280;4958;48.150;11.506;2023-06-22T10:15:15;95472.44;;;32.48;41.36
9839;BME280;4958;48.150;11.506;2023-06-22T10:17:44;95471.28;;;32.58;41.11
9839;BME280;4958;48.150;11.506;2023-06-22T10:20:25;95474.88;;;32.71;40.48
9839;BME280;4958;48.150;11.506;2023-06-22T10:23:07;95478.44;;;32.83;40.98
9839;BME280;4958;48.150;11.506;2023-06-22T10:25:33;95479.38;;;32.87;41.04
9839;BME280;4958;48.150;11.506;2023-06-22T10:28:07;95481.22;;;32.95;40.23
9839;BME280;4958;48.150;11.506;2023-06-22T10:30:51;95478.78;;;33.11;40.58
9839;BME280;4958;48.150;11.506;2023-06-22T10:33:18;95483.16;;;33.16;40.17
9839;BME280;4958;48.150;11.506;2023-06-22T10:38:57;95461.56;;;33.29;39.39
9839;BME280;4958;48.150;11.506;2023-06-22T10:41:33;95455.69;;;33.45;40.29
9839;BME280;4958;48.150;11.506;2023-06-22T10:50:09;95443.75;;;33.63;39.28
9839;BME280;4958;48.150;11.506;2023-06-22T10:52:36;95443.16;;;33.57;39.13
9839;BME280;4958;48.150;11.506;2023-06-22T10:55:03;95446.63;;;33.58;39.76
9839;BME280;4958;48.150;11.506;2023-06-22T10:57:47;95431.09;;;33.72;39.25
9839;BME280;4958;48.150;11.506;2023-06-22T11:00:18;95440.63;;;33.61;39.91
9839;BME280;4958;48.150;11.506;2023-06-22T11:02:49;95427.34;;;33.32;40.52
9839;BME280;4958;48.150;11.506;2023-06-22T11:05:16;95434.44;;;32.98;40.63
9839;BME280;4958;48.150;11.506;2023-06-22T11:07:47;95444.28;;;32.77;41.17
9839;BME280;4958;48.150;11.506;2023-06-22T11:10:15;95438.63;;;32.70;42.32
9839;BME280;4958;48.150;11.506;2023-06-22T11:12:41;95442.69;;;32.76;42.16
9839;BME280;4958;48.150;11.506;2023-06-22T11:15:15;95434.66;;;32.84;42.13
9839;BME280;4958;48.150;11.506;2023-06-22T11:17:45;95432.16;;;32.88;42.04
9839;BME280;4958;48.150;11.506;2023-06-22T11:20:14;95434.03;;;32.87;41.99
9839;BME280;4958;48.150;11.506;2023-06-22T11:23:06;95432.97;;;32.80;42.60
9839;BME280;4958;48.150;11.506;2023-06-22T11:25:41;95429.16;;;33.10;41.82
9839;BME280;4958;48.150;11.506;2023-06-22T11:28:13;95431.19;;;33.43;41.05
9839;BME280;4958;48.150;11.506;2023-06-22T11:30:43;95421.28;;;33.64;40.69
9839;BME280;4958;48.150;11.506;2023-06-22T11:33:15;95424.06;;;33.88;40.12
9839;BME280;4958;48.150;11.506;2023-06-22T11:35:49;95418.13;;;34.04;40.31
9839;BME280;4958;48.150;11.506;2023-06-22T11:38:20;95418.41;;;34.23;39.73
9839;BME280;4958;48.150;11.506;2023-06-22T11:40:52;95412.19;;;34.31;39.49
9839;BME280;4958;48.150;11.506;2023-06-22T11:43:27;95405.53;;;34.37;39.68
9839;BME280;4958;48.150;11.506;2023-06-22T11:46:12;95400.19;;;34.61;39.38
9839;BME280;4958;48.150;11.506;2023-06-22T11:48:40;95399.41;;;34.61;38.75
9839;BME280;4958;48.150;11.506;2023-06-22T11:51:08;95393.84;;;34.54;39.01
9839;BME280;4958;48.150;11.506;2023-06-22T11:53:43;95397.06;;;34.72;38.72
9839;BME280;4958;48.150;11.506;2023-06-22T11:56:56;95400.75;;;34.67;37.80
9839;BME280;4958;48.150;11.506;2023-06-22T11:59:49;95399.97;;;34.67;37.94
9839;BME280;4958;48.150;11.506;2023-06-22T12:02:25;95394.16;;;34.52;37.98
9839;BME280;4958;48.150;11.506;2023-06-22T12:05:11;95390.13;;;34.34;38.44
9839;BME280;4958;48.150;11.506;2023-06-22T12:08:52;95386.00;;;34.24;38.70
9839;BME280;4958;48.150;11.506;2023-06-22T12:11:07;95385.47;;;34.43;38.70
9839;BME280;4958;48.150;11.506;2023-06-22T12:14:05;95373.22;;;34.67;38.07
9839;BME280;4958;48.150;11.506;2023-06-22T12:16:35;95375.34;;;34.85;38.47
9839;BME280;4958;48.150;11.506;2023-06-22T12:19:27;95369.09;;;34.93;37.99
9839;BME280;4958;48.150;11.506;2023-06-22T12:22:21;95368.16;;;35.14;38.06
9839;BME280;4958;48.150;11.506;2023-06-22T12:25:00;95362.94;;;35.05;37.98
9839;BME280;4958;48.150;11.506;2023-06-22T12:27:34;95354.97;;;34.81;37.30
9839;BME280;4958;48.150;11.506;2023-06-22T12:30:15;95356.72;;;34.64;38.15
9839;BME280;4958;48.150;11.506;2023-06-22T12:32:51;95348.25;;;34.62;38.42
9839;BME280;4958;48.150;11.506;2023-06-22T12:35:28;95351.97;;;34.82;37.72
9839;BME280;4958;48.150;11.506;2023-06-22T12:38:16;95354.81;;;34.89;37.50
9839;BME280;4958;48.150;11.506;2023-06-22T12:40:52;95352.63;;;34.79;37.87
9839;BME280;4958;48.150;11.506;2023-06-22T12:43:26;95353.16;;;34.73;38.23
9839;BME280;4958;48.150;11.506;2023-06-22T12:45:52;95340.22;;;34.50;37.97
9839;BME280;4958;48.150;11.506;2023-06-22T12:48:25;95344.94;;;34.41;38.45
9839;BME280;4958;48.150;11.506;2023-06-22T12:50:52;95339.13;;;34.39;38.31
9839;BME280;4958;48.150;11.506;2023-06-22T12:53:26;95333.78;;;34.39;38.69
9839;BME280;4958;48.150;11.506;2023-06-22T12:55:52;95329.22;;;34.40;39.05
9839;BME280;4958;48.150;11.506;2023-06-22T12:58:28;95323.19;;;34.30;38.93
9839;BME280;4958;48.150;11.506;2023-06-22T13:01:00;95333.72;;;34.15;39.46
9839;BME280;4958;48.150;11.506;2023-06-22T13:03:32;95327.59;;;34.14;39.09
9839;BME280;4958;48.150;11.506;2023-06-22T13:05:59;95331.19;;;34.30;39.82
9839;BME280;4958;48.150;11.506;2023-06-22T13:08:31;95333.19;;;34.46;38.53
9839;BME280;4958;48.150;11.506;2023-06-22T13:11:04;95339.44;;;34.74;39.17
9839;BME280;4958;48.150;11.506;2023-06-22T13:13:33;95348.47;;;34.94;38.63
9839;BME280;4958;48.150;11.506;2023-06-22T13:16:03;95342.56;;;34.88;38.26
9839;BME280;4958;48.150;11.506;2023-06-22T13:18:29;95335.44;;;34.80;38.12
9839;BME280;4958;48.150;11.506;2023-06-22T13:21:05;95333.97;;;34.95;37.99
9839;BME280;4958;48.150;11.506;2023-06-22T13:23:37;95337.59;;;35.15;38.32
9839;BME280;4958;48.150;11.506;2023-06-22T13:26:05;95334.09;;;35.26;37.75
9839;BME280;4958;48.150;11.506;2023-06-22T13:28:31;95326.50;;;35.41;37.47
9839;BME280;4958;48.150;11.506;2023-06-22T13:30:58;95332.72;;;35.45;37.38
9839;BME280;4958;48.150;11.506;2023-06-22T13:33:31;95326.66;;;35.60;36.68
9839;BME280;4958;48.150;11.506;2023-06-22T13:35:58;95329.72;;;35.62;37.06
9839;BME280;4958;48.150;11.506;2023-06-22T13:38:24;95326.53;;;35.56;36.81